createdAt,value
2018-06-23T00:01:00.647Z,63.70
2018-06-23T00:03:28.923Z,63.80
2018-06-23T00:05:57.229Z,63.80
2018-06-23T00:08:25.484Z,63.90
2018-06-23T00:10:53.995Z,64.00
2018-06-23T00:13:22.244Z,64.20
2018-06-23T00:15:50.516Z,64.30
2018-06-23T00:18:18.768Z,64.40
2018-06-23T00:20:47.055Z,64.30
2018-06-23T00:23:15.357Z,64.50
2018-06-23T00:25:49.021Z,64.50
2018-06-23T00:28:17.328Z,64.80
2018-06-23T00:30:45.592Z,64.80
2018-06-23T00:33:13.876Z,65.00
2018-06-23T00:35:42.136Z,65.20
2018-06-23T00:38:10.416Z,65.10
2018-06-23T00:40:38.706Z,65.20
2018-06-23T00:43:07.044Z,65.20
2018-06-23T00:45:35.819Z,65.30
2018-06-23T00:48:04.086Z,66.30
2018-06-23T00:50:32.410Z,65.60
2018-06-23T00:53:00.649Z,65.70
2018-06-23T00:55:28.928Z,65.70
2018-06-23T00:57:57.164Z,65.70
2018-06-23T01:00:25.449Z,65.60
2018-06-23T01:02:53.693Z,65.90
2018-06-23T01:05:21.957Z,66.20
2018-06-23T01:07:50.220Z,66.40
2018-06-23T01:10:18.517Z,66.40
2018-06-23T01:12:46.772Z,66.30
2018-06-23T01:15:15.045Z,66.40
2018-06-23T01:17:43.415Z,66.50
2018-06-23T01:20:11.681Z,66.70
2018-06-23T01:22:40.269Z,66.80
2018-06-23T01:25:08.547Z,66.80
2018-06-23T01:30:05.140Z,66.90
2018-06-23T01:32:33.393Z,66.80
2018-06-23T01:35:01.634Z,66.90
2018-06-23T01:37:29.925Z,67.00
2018-06-23T01:39:58.751Z,67.10
2018-06-23T01:42:27.026Z,67.00
2018-06-23T01:44:55.266Z,67.10
2018-06-23T01:47:23.523Z,67.10
2018-06-23T01:49:51.795Z,67.10
2018-06-23T01:52:20.048Z,67.10
2018-06-23T01:54:48.323Z,67.10
2018-06-23T01:57:16.577Z,67.20
2018-06-23T01:59:44.896Z,67.50
2018-06-23T02:02:13.153Z,67.50
2018-06-23T02:04:41.386Z,67.60
2018-06-23T02:07:09.664Z,67.60
2018-06-23T02:09:37.896Z,67.80
2018-06-23T02:12:06.449Z,67.80
2018-06-23T02:14:40.130Z,68.00
2018-06-23T02:17:13.692Z,68.00
2018-06-23T02:19:47.243Z,68.00
2018-06-23T02:22:20.876Z,68.20
2018-06-23T02:24:54.565Z,68.40
2018-06-23T02:27:28.202Z,68.40
2018-06-23T02:30:01.920Z,68.50
2018-06-23T02:32:35.492Z,68.60
2018-06-23T02:35:05.175Z,68.70
2018-06-23T02:37:35.288Z,68.70
2018-06-23T02:40:03.806Z,68.90
2018-06-23T02:42:32.082Z,69.10
2018-06-23T02:45:00.543Z,69.10
2018-06-23T02:47:28.867Z,69.70
2018-06-23T02:49:58.952Z,68.90
2018-06-23T02:52:27.828Z,68.90
2018-06-23T02:54:56.168Z,69.00
2018-06-23T02:57:24.688Z,69.00
2018-06-23T02:59:52.972Z,69.10
2018-06-23T03:04:49.240Z,69.30
2018-06-23T03:07:17.492Z,69.40
2018-06-23T03:09:45.819Z,69.60
2018-06-23T03:12:14.084Z,69.70
2018-06-23T03:14:42.384Z,69.60
2018-06-23T03:17:16.547Z,69.80
2018-06-23T03:19:46.996Z,69.80
2018-06-23T03:22:15.260Z,69.70
2018-06-23T03:24:43.768Z,69.80
2018-06-23T03:27:12.028Z,69.90
2018-06-23T03:29:40.460Z,70.00
2018-06-23T03:32:09.175Z,70.10
2018-06-23T03:34:37.458Z,70.40
2018-06-23T03:37:05.713Z,70.40
2018-06-23T03:39:34.180Z,70.50
2018-06-23T03:42:02.443Z,70.70
2018-06-23T03:44:30.716Z,71.00
2018-06-23T03:46:58.943Z,71.00
2018-06-23T03:49:27.176Z,71.20
2018-06-23T03:51:55.372Z,71.20
2018-06-23T03:54:23.615Z,71.30
2018-06-23T03:56:51.915Z,71.40
2018-06-23T03:59:20.417Z,71.40
2018-06-23T04:01:48.649Z,71.50
2018-06-23T04:04:16.947Z,71.60
2018-06-23T04:06:45.187Z,71.70
2018-06-23T04:09:13.481Z,71.60
2018-06-23T04:11:41.733Z,71.80
2018-06-23T04:14:09.948Z,72.10
2018-06-23T04:19:06.147Z,72.20
2018-06-23T04:21:34.396Z,72.20
2018-06-23T04:24:02.649Z,72.20
2018-06-23T04:26:30.950Z,72.40
2018-06-23T04:28:59.155Z,72.20
2018-06-23T04:31:27.441Z,72.20
2018-06-23T04:33:55.679Z,72.40
2018-06-23T04:36:23.903Z,72.30
2018-06-23T04:38:52.167Z,72.40
2018-06-23T04:41:20.512Z,72.30
2018-06-23T04:43:48.947Z,72.30
2018-06-23T04:46:17.208Z,72.20
2018-06-23T04:48:45.464Z,72.20
2018-06-23T04:51:13.722Z,72.10
2018-06-23T04:53:44.773Z,72.10
2018-06-23T04:56:13.112Z,72.10
2018-06-23T04:58:41.431Z,71.90
2018-06-23T05:01:09.916Z,71.90
2018-06-23T05:03:38.391Z,72.00
2018-06-23T05:06:06.956Z,71.80
2018-06-23T05:08:36.089Z,71.70
2018-06-23T05:13:32.309Z,71.00
2018-06-23T05:16:00.544Z,70.70
2018-06-23T05:18:28.806Z,70.20
2018-06-23T05:20:57.035Z,70.20
2018-06-23T05:23:25.283Z,70.00
2018-06-23T05:25:53.541Z,70.00
2018-06-23T05:28:21.772Z,69.70
2018-06-23T05:30:50.075Z,69.20
2018-06-23T05:33:19.875Z,69.20
2018-06-23T05:35:48.121Z,69.10
2018-06-23T05:38:16.362Z,68.90
2018-06-23T05:40:44.615Z,68.80
2018-06-23T05:43:12.864Z,68.80
2018-06-23T05:45:41.117Z,69.20
2018-06-23T05:50:37.668Z,69.40
2018-06-23T05:55:33.900Z,69.20
2018-06-23T05:58:02.166Z,69.20
2018-06-23T06:00:30.460Z,69.10
2018-06-23T06:02:58.688Z,68.80
2018-06-23T06:05:26.955Z,68.90
2018-06-23T06:07:55.199Z,69.20
2018-06-23T06:10:23.459Z,69.20
2018-06-23T06:12:51.745Z,69.10
2018-06-23T06:17:47.996Z,69.20
2018-06-23T06:20:16.708Z,69.70
2018-06-23T06:22:46.138Z,69.70
2018-06-23T06:25:14.981Z,69.80
2018-06-23T06:27:43.199Z,69.70
2018-06-23T06:30:12.183Z,69.80
2018-06-23T06:32:40.441Z,69.60
2018-06-23T06:35:08.724Z,69.10
2018-06-23T06:37:36.987Z,68.00
2018-06-23T06:40:07.192Z,67.40
2018-06-23T06:42:35.983Z,67.40
2018-06-23T06:45:04.647Z,66.70
2018-06-23T06:47:33.092Z,67.00
2018-06-23T06:50:01.356Z,67.40
2018-06-23T06:52:30.400Z,67.70
2018-06-23T06:54:58.672Z,67.90
2018-06-23T06:57:26.901Z,67.50
2018-06-23T06:59:55.236Z,67.00
2018-06-23T07:02:23.515Z,66.00
2018-06-23T07:04:51.775Z,65.90
2018-06-23T07:07:20.168Z,65.80
2018-06-23T07:09:48.424Z,65.90
2018-06-23T07:12:16.659Z,66.00
2018-06-23T07:14:45.673Z,65.70
2018-06-23T07:19:42.241Z,65.60
2018-06-23T07:27:07.885Z,65.60
2018-06-23T07:29:36.484Z,65.40
2018-06-23T07:32:06.206Z,65.20
2018-06-23T07:34:35.003Z,65.50
2018-06-23T07:37:03.830Z,65.60
2018-06-23T07:39:32.108Z,65.40
2018-06-23T07:42:00.459Z,65.50
2018-06-23T07:44:28.917Z,65.70
2018-06-23T07:46:57.504Z,66.10
2018-06-23T07:49:26.136Z,66.30
2018-06-23T07:51:54.743Z,66.60
2018-06-23T07:54:24.111Z,67.00
2018-06-23T07:56:52.519Z,67.40
2018-06-23T07:59:20.975Z,68.30
2018-06-23T08:01:49.213Z,68.70
2018-06-23T08:04:17.899Z,69.00
2018-06-23T08:06:46.842Z,68.80
2018-06-23T08:09:15.439Z,68.90
2018-06-23T08:11:43.737Z,68.70
2018-06-23T08:14:12.262Z,68.40
2018-06-23T08:16:40.559Z,68.30
2018-06-23T08:19:09.030Z,67.90
2018-06-23T08:21:37.339Z,67.70
2018-06-23T08:24:05.887Z,67.70
2018-06-23T08:26:34.812Z,67.50
2018-06-23T08:29:03.397Z,67.40
2018-06-23T08:31:31.637Z,66.00
2018-06-23T08:33:59.920Z,65.60
2018-06-23T08:36:28.237Z,65.10
2018-06-23T08:38:56.468Z,64.50
2018-06-23T08:41:24.697Z,63.30
2018-06-23T08:43:52.995Z,63.10
2018-06-23T08:46:21.220Z,62.20
2018-06-23T08:48:49.468Z,62.00
2018-06-23T08:51:17.725Z,62.00
2018-06-23T08:56:13.985Z,60.50
2018-06-23T08:58:42.252Z,60.60
2018-06-23T09:01:10.489Z,59.90
2018-06-23T09:03:38.899Z,59.70
2018-06-23T09:06:07.148Z,59.50
2018-06-23T09:08:35.437Z,59.30
2018-06-23T09:11:03.709Z,59.50
2018-06-23T09:13:31.942Z,59.70
2018-06-23T09:16:00.202Z,60.10
2018-06-23T09:18:28.420Z,60.80
2018-06-23T09:20:56.800Z,61.30
2018-06-23T09:23:25.009Z,61.80
2018-06-23T09:25:53.293Z,62.20
2018-06-23T09:28:21.508Z,62.70
2018-06-23T09:30:49.741Z,62.80
2018-06-23T09:33:17.988Z,63.00
2018-06-23T09:35:46.224Z,62.70
2018-06-23T09:38:14.606Z,62.70
2018-06-23T09:40:42.884Z,62.70
2018-06-23T09:43:11.091Z,62.40
2018-06-23T09:45:45.751Z,62.40
2018-06-23T09:48:14.020Z,62.30
2018-06-23T09:50:42.467Z,62.20
2018-06-23T09:53:10.714Z,60.80
2018-06-23T09:55:39.060Z,60.70
2018-06-23T09:58:07.316Z,60.40
2018-06-23T10:00:35.577Z,59.80
2018-06-23T10:03:03.767Z,59.60
2018-06-23T10:05:32.016Z,59.50
2018-06-23T10:08:00.976Z,59.50
2018-06-23T10:10:30.182Z,59.10
2018-06-23T10:15:26.401Z,58.20
2018-06-23T10:22:16.702Z,56.70
2018-06-23T10:24:44.962Z,57.80
2018-06-23T10:27:13.196Z,58.30
2018-06-23T10:29:41.444Z,58.20
2018-06-23T10:32:09.687Z,57.90
2018-06-23T10:34:37.951Z,57.40
2018-06-23T10:37:06.226Z,56.90
2018-06-23T10:39:34.531Z,56.50
2018-06-23T10:44:30.825Z,56.40
2018-06-23T10:46:59.099Z,56.60
2018-06-23T10:49:27.528Z,56.70
2018-06-23T10:51:55.807Z,57.20
2018-06-23T10:54:24.055Z,57.20
2018-06-23T10:56:52.337Z,57.50
2018-06-23T10:59:20.572Z,58.30
2018-06-23T11:01:48.807Z,59.10
2018-06-23T11:04:17.040Z,59.70
2018-06-23T11:06:45.255Z,60.20
2018-06-23T11:09:13.492Z,61.30
2018-06-23T11:11:42.024Z,60.80
2018-06-23T11:14:10.267Z,61.00
2018-06-23T11:16:38.535Z,60.50
2018-06-23T11:19:06.868Z,60.00
2018-06-23T11:21:35.107Z,59.70
2018-06-23T11:24:03.367Z,59.30
2018-06-23T11:26:31.622Z,59.00
2018-06-23T11:28:59.814Z,58.40
2018-06-23T11:31:28.305Z,57.50
2018-06-23T11:36:24.546Z,55.90
2018-06-23T11:38:52.759Z,55.40
2018-06-23T11:41:21.164Z,55.30
2018-06-23T11:43:49.392Z,54.80
2018-06-23T11:46:17.622Z,53.80
2018-06-23T11:48:45.888Z,53.10
2018-06-23T11:51:14.289Z,53.00
2018-06-23T11:53:42.549Z,52.60
2018-06-23T11:56:10.740Z,52.00
2018-06-23T11:58:38.966Z,52.60
2018-06-23T12:01:07.214Z,53.30
2018-06-23T12:03:35.480Z,53.70
2018-06-23T12:06:03.709Z,54.00
2018-06-23T12:08:31.970Z,54.20
2018-06-23T12:11:00.534Z,54.30
2018-06-23T12:13:29.063Z,54.70
2018-06-23T12:15:57.955Z,54.90
2018-06-23T12:18:26.884Z,55.00
2018-06-23T12:20:55.248Z,54.80
2018-06-23T12:23:23.486Z,54.90
2018-06-23T12:25:51.977Z,54.70
2018-06-23T12:28:20.211Z,54.40
2018-06-23T12:30:48.461Z,54.70
2018-06-23T12:33:16.717Z,55.10
2018-06-23T12:35:44.964Z,55.20
2018-06-23T12:38:13.203Z,55.50
2018-06-23T12:40:41.629Z,55.40
2018-06-23T12:43:09.871Z,55.20
2018-06-23T12:45:38.099Z,55.00
2018-06-23T12:48:06.423Z,54.20
2018-06-23T12:50:34.761Z,54.10
2018-06-23T12:53:03.209Z,52.30
2018-06-23T12:55:31.420Z,52.00
2018-06-23T13:00:27.652Z,51.50
2018-06-23T13:02:55.880Z,51.70
2018-06-23T13:05:24.156Z,50.20
2018-06-23T13:07:52.421Z,50.00
2018-06-23T13:10:20.760Z,49.10
2018-06-23T13:12:48.999Z,48.20
2018-06-23T13:15:17.261Z,47.80
2018-06-23T13:17:45.519Z,47.90
2018-06-23T13:20:13.722Z,48.00
2018-06-23T13:22:41.972Z,48.00
2018-06-23T13:25:10.236Z,48.30
2018-06-23T13:27:38.520Z,47.00
2018-06-23T13:30:06.788Z,46.20
2018-06-23T13:32:35.075Z,46.30
2018-06-23T13:35:03.352Z,45.50
2018-06-23T13:37:31.588Z,45.10
2018-06-23T13:39:59.885Z,45.80
2018-06-23T13:42:28.104Z,43.80
2018-06-23T13:44:56.674Z,44.20
2018-06-23T13:47:24.927Z,44.10
2018-06-23T13:49:53.207Z,43.80
2018-06-23T13:52:21.453Z,42.50
2018-06-23T13:54:49.704Z,42.00
2018-06-23T13:57:17.957Z,42.80
2018-06-23T14:02:14.165Z,43.10
2018-06-23T14:04:42.383Z,43.70
2018-06-23T14:07:10.669Z,44.20
2018-06-23T14:09:39.025Z,44.90
2018-06-23T14:12:07.249Z,46.10
2018-06-23T14:14:35.592Z,45.10
2018-06-23T14:17:03.897Z,43.80
2018-06-23T14:19:32.808Z,41.50
2018-06-23T14:22:01.064Z,40.00
2018-06-23T14:24:30.291Z,39.40
2018-06-23T14:26:59.190Z,38.10
2018-06-23T14:29:28.195Z,36.20
2018-06-23T14:31:56.712Z,35.70
2018-06-23T14:34:24.991Z,35.20
2018-06-23T14:36:54.791Z,34.10
2018-06-23T14:39:23.409Z,32.80
2018-06-23T14:41:52.134Z,29.70
2018-06-23T14:44:21.242Z,28.10
2018-06-23T14:46:49.623Z,27.30
2018-06-23T14:49:18.645Z,26.80
2018-06-23T14:51:47.050Z,25.00
2018-06-23T14:54:15.712Z,24.40
2018-06-23T14:56:44.376Z,24.40
2018-06-23T15:01:42.522Z,24.40
2018-06-23T15:04:11.167Z,25.20
2018-06-23T15:06:39.435Z,27.00
2018-06-23T15:09:19.423Z,28.60
2018-06-23T15:11:59.011Z,29.10
2018-06-23T15:14:27.311Z,27.70
2018-06-23T15:16:55.515Z,26.70
2018-06-23T15:19:24.689Z,26.40
2018-06-23T15:21:52.952Z,26.50
2018-06-23T15:24:21.867Z,26.90
2018-06-23T15:26:50.160Z,27.10
2018-06-23T15:29:18.463Z,28.10
2018-06-23T15:31:46.724Z,29.10
2018-06-23T15:34:15.396Z,30.30
2018-06-23T15:36:44.669Z,31.30
2018-06-23T15:39:12.927Z,32.10
2018-06-23T15:41:41.186Z,33.10
2018-06-23T15:44:09.457Z,33.10
2018-06-23T15:46:37.763Z,32.10
2018-06-23T15:49:06.049Z,31.00
2018-06-23T15:51:34.569Z,31.90
2018-06-23T15:54:02.819Z,33.10
2018-06-23T15:56:31.174Z,32.60
2018-06-23T15:58:59.500Z,30.80
2018-06-23T16:01:27.718Z,30.40
2018-06-23T16:03:56.233Z,31.30
2018-06-23T16:06:24.492Z,32.20
2018-06-23T16:08:52.762Z,32.40
2018-06-23T16:11:20.967Z,33.20
2018-06-23T16:13:49.398Z,34.40
2018-06-23T16:16:17.973Z,35.50
2018-06-23T16:18:46.725Z,36.00
2018-06-23T16:21:15.176Z,37.00
2018-06-23T16:23:43.862Z,37.70
2018-06-23T16:26:12.261Z,37.90
2018-06-23T16:28:40.657Z,38.10
2018-06-23T16:31:08.894Z,38.00
2018-06-23T16:33:38.030Z,38.00
2018-06-23T16:36:06.668Z,38.30
2018-06-23T16:41:03.720Z,39.00
2018-06-23T16:43:31.996Z,39.10
2018-06-23T16:48:28.217Z,39.10
2018-06-23T16:50:56.519Z,39.30
2018-06-23T16:53:24.859Z,39.40
2018-06-23T16:55:53.318Z,39.60
2018-06-23T16:58:21.795Z,39.90
2018-06-23T17:00:50.744Z,39.90
2018-06-23T17:03:19.040Z,40.00
2018-06-23T17:05:47.634Z,40.30
2018-06-23T17:08:16.103Z,40.50
2018-06-23T17:10:44.707Z,40.90
2018-06-23T17:13:14.401Z,40.80
2018-06-23T17:15:43.295Z,41.20
2018-06-23T17:18:12.305Z,41.40
2018-06-23T17:20:41.373Z,41.40
2018-06-23T17:25:38.261Z,40.70
2018-06-23T17:28:06.800Z,40.00
2018-06-23T17:30:35.514Z,39.90
2018-06-23T17:33:04.540Z,40.10
2018-06-23T17:35:33.785Z,40.30
2018-06-23T17:38:02.985Z,40.50
2018-06-23T17:40:31.982Z,40.80
2018-06-23T17:43:01.055Z,40.90
2018-06-23T17:45:29.951Z,41.00
2018-06-23T17:47:58.545Z,41.10
2018-06-23T17:50:27.548Z,40.90
2018-06-23T17:52:56.258Z,40.30
2018-06-23T17:55:25.021Z,39.60
2018-06-23T17:57:55.150Z,39.60
2018-06-23T18:00:24.438Z,40.00
2018-06-23T18:05:21.861Z,40.80
2018-06-23T18:07:50.595Z,41.30
2018-06-23T18:10:20.466Z,41.60
2018-06-23T18:12:49.168Z,41.80
2018-06-23T18:15:18.065Z,41.90
2018-06-23T18:20:15.326Z,42.10
2018-06-23T18:22:44.111Z,41.80
2018-06-23T18:25:13.229Z,42.00
2018-06-23T18:27:41.776Z,42.20
2018-06-23T18:30:10.458Z,42.40
2018-06-23T18:32:38.700Z,42.70
2018-06-23T18:35:08.159Z,42.90
2018-06-23T18:37:36.433Z,43.20
2018-06-23T18:40:05.715Z,43.50
2018-06-23T18:42:34.392Z,44.00
2018-06-23T18:45:02.887Z,43.90
2018-06-23T18:47:31.471Z,43.90
2018-06-23T18:50:00.052Z,43.90
2018-06-23T18:57:24.523Z,43.80
2018-06-23T18:59:52.811Z,43.80
2018-06-23T19:02:21.055Z,43.90
2018-06-23T19:04:49.266Z,43.90
2018-06-23T19:07:17.552Z,44.10
2018-06-23T19:09:46.395Z,44.20
2018-06-23T19:12:14.619Z,44.10
2018-06-23T19:14:42.884Z,44.20
2018-06-23T19:17:11.132Z,44.30
2018-06-23T19:19:39.359Z,44.40
2018-06-23T19:22:07.573Z,44.50
2018-06-23T19:24:35.803Z,44.70
2018-06-23T19:27:04.583Z,44.90
2018-06-23T19:29:32.878Z,45.00
2018-06-23T19:32:01.166Z,45.20
2018-06-23T19:34:29.569Z,45.20
2018-06-23T19:36:57.788Z,45.40
2018-06-23T19:39:26.219Z,45.40
2018-06-23T19:41:54.476Z,45.40
2018-06-23T19:44:22.771Z,45.50
2018-06-23T19:46:50.919Z,45.60
2018-06-23T19:49:19.189Z,46.00
2018-06-23T19:51:47.493Z,46.50
2018-06-23T19:54:15.736Z,46.80
2018-06-23T19:56:43.962Z,47.00
2018-06-23T19:59:12.264Z,47.00
2018-06-23T20:01:40.510Z,46.90
2018-06-23T20:04:08.724Z,46.90
2018-06-23T20:06:37.036Z,47.10
2018-06-23T20:09:07.661Z,47.20
2018-06-23T20:11:36.132Z,47.20
2018-06-23T20:14:04.536Z,47.30
2018-06-23T20:16:32.845Z,47.40
2018-06-23T20:19:01.076Z,47.60
2018-06-23T20:21:29.320Z,47.60
2018-06-23T20:23:57.575Z,47.70
2018-06-23T20:26:25.837Z,47.80
2018-06-23T20:28:54.038Z,47.80
2018-06-23T20:31:22.331Z,48.00
2018-06-23T20:33:50.586Z,48.20
2018-06-23T20:36:18.849Z,48.60
2018-06-23T20:38:47.085Z,48.80
2018-06-23T20:41:15.433Z,49.00
2018-06-23T20:43:43.652Z,49.10
2018-06-23T20:46:11.904Z,49.20
2018-06-23T20:48:40.228Z,49.80
2018-06-23T20:51:08.504Z,49.40
2018-06-23T20:53:36.724Z,49.50
2018-06-23T20:56:04.998Z,49.50
2018-06-23T20:58:33.239Z,49.60
2018-06-23T21:01:01.645Z,49.50
2018-06-23T21:03:29.848Z,49.60
2018-06-23T21:05:58.149Z,49.70
2018-06-23T21:08:26.383Z,49.90
2018-06-23T21:10:54.613Z,50.00
2018-06-23T21:13:22.828Z,50.10
2018-06-23T21:15:51.160Z,50.10
2018-06-23T21:18:19.374Z,50.20
2018-06-23T21:20:47.608Z,50.30
2018-06-23T21:23:15.848Z,50.40
2018-06-23T21:25:44.115Z,50.50
2018-06-23T21:28:12.367Z,50.60
2018-06-23T21:30:40.999Z,50.60
2018-06-23T21:35:37.160Z,50.90
2018-06-23T21:38:05.379Z,50.90
2018-06-23T21:40:33.642Z,51.10
2018-06-23T21:43:01.914Z,51.30
2018-06-23T21:45:30.119Z,51.30
2018-06-23T21:47:58.345Z,51.40
2018-06-23T21:50:26.600Z,51.50
2018-06-23T21:52:54.825Z,51.50
2018-06-23T21:55:23.039Z,51.70
2018-06-23T21:57:51.531Z,51.80
2018-06-23T22:00:30.473Z,52.00
2018-06-23T22:02:59.460Z,52.10
2018-06-23T22:05:27.984Z,52.00
2018-06-23T22:07:56.320Z,52.20
2018-06-23T22:10:24.812Z,52.40
2018-06-23T22:12:53.077Z,52.50
2018-06-23T22:15:21.299Z,52.50
2018-06-23T22:17:49.599Z,52.60
2018-06-23T22:20:18.107Z,52.60
2018-06-23T22:22:46.353Z,52.80
2018-06-23T22:25:14.636Z,52.90
2018-06-23T22:30:11.777Z,53.20
2018-06-23T22:32:40.101Z,53.20
2018-06-23T22:35:09.199Z,53.30
2018-06-23T22:37:37.693Z,53.40
2018-06-23T22:40:05.988Z,53.60
2018-06-23T22:42:34.346Z,53.70
2018-06-23T22:45:02.823Z,53.60
2018-06-23T22:47:31.556Z,53.70
2018-06-23T22:52:27.744Z,53.90
2018-06-23T22:54:55.984Z,54.00
2018-06-23T22:57:24.208Z,54.20
2018-06-23T22:59:52.440Z,54.30
2018-06-23T23:02:20.679Z,54.50
2018-06-23T23:04:48.892Z,54.60
2018-06-23T23:07:17.116Z,55.00
2018-06-23T23:09:45.363Z,55.10
2018-06-23T23:12:13.609Z,55.30
2018-06-23T23:14:41.820Z,55.50
2018-06-23T23:17:10.076Z,55.80
2018-06-23T23:19:38.284Z,56.10
2018-06-23T23:22:07.371Z,56.00
2018-06-23T23:24:35.653Z,56.10
2018-06-23T23:27:03.924Z,56.30
2018-06-23T23:29:32.451Z,56.30
2018-06-23T23:32:00.679Z,56.70
2018-06-23T23:34:28.907Z,57.00
2018-06-23T23:36:57.155Z,57.70
2018-06-23T23:39:25.431Z,58.10
2018-06-23T23:41:53.668Z,58.50
2018-06-23T23:44:21.876Z,59.10
2018-06-23T23:46:50.182Z,59.40
2018-06-23T23:49:18.460Z,59.60
2018-06-23T23:51:46.685Z,59.90
2018-06-23T23:54:14.925Z,60.10
2018-06-23T23:56:43.124Z,60.60
2018-06-23T23:59:11.475Z,61.10
